Time;durP1;ratioP1;P1;durP2;ratioP2;P2;SDS_P1;SDS_P2;PMS_P1;PMS_P2;Temp;Humidity;BMP_temperature;BMP_pressure;BME280_temperature;BME280_humidity;BME280_pressure;Samples;Min_cycle;Max_cycle;Signal;HPM_P1;HPM_P2
2022/07/30 00:00:05;;;;;;;20.58;9.57;;;14.60;99.90;;;;;;4995034;28;20041;-55
2022/07/30 00:02:32;;;;;;;13.52;10.20;;;13.30;99.90;;;;;;4998237;28;20128;-55
2022/07/30 00:04:58;;;;;;;11.63;9.77;;;14.70;99.90;;;;;;4996326;28;20042;-56
2022/07/30 00:07:24;;;;;;;14.93;10.00;;;13.70;99.90;;;;;;4998039;28;20042;-55
2022/07/30 00:09:50;;;;;;;13.43;10.57;;;15.20;99.90;;;;;;4998180;28;20168;-55
2022/07/30 00:12:16;;;;;;;12.75;9.38;;;13.20;99.90;;;;;;4997670;28;20053;-55
2022/07/30 00:14:41;;;;;;;10.45;8.40;;;14.10;99.90;;;;;;4997442;28;20061;-55
2022/07/30 00:17:09;;;;;;;16.23;8.95;;;13.80;99.90;;;;;;4979857;28;20101;-54
2022/07/30 00:19:35;;;;;;;12.38;9.65;;;13.10;99.90;;;;;;4996948;28;20037;-55
2022/07/30 00:22:01;;;;;;;11.20;9.00;;;14.30;99.90;;;;;;4996445;28;20522;-56
2022/07/30 00:24:26;;;;;;;11.82;8.50;;;12.90;99.90;;;;;;4996901;28;20046;-55
2022/07/30 00:26:52;;;;;;;9.60;7.80;;;13.40;99.90;;;;;;4980384;28;20072;-55
2022/07/30 00:29:18;;;;;;;14.05;8.82;;;12.90;99.90;;;;;;4997350;28;20034;-55
2022/07/30 00:31:43;;;;;;;12.20;9.30;;;12.90;99.90;;;;;;4997884;28;20046;-55
2022/07/30 00:34:11;;;;;;;10.23;9.02;;;14.00;99.90;;;;;;4999198;28;20136;-54
2022/07/30 00:36:37;;;;;;;15.85;11.00;;;12.90;99.90;;;;;;4996278;28;20050;-55
2022/07/30 00:39:03;;;;;;;16.88;9.98;;;12.70;99.90;;;;;;4994645;28;20041;-55
2022/07/30 00:41:29;;;;;;;17.15;12.70;;;12.80;99.90;;;;;;4995148;28;20052;-56
2022/07/30 00:43:54;;;;;;;15.93;12.90;;;13.10;99.90;;;;;;4995503;28;20052;-54
2022/07/30 00:46:20;;;;;;;14.95;11.57;;;13.90;99.90;;;;;;4995595;28;20044;-55
2022/07/30 00:48:48;;;;;;;13.88;11.75;;;13.00;99.90;;;;;;4995832;28;20409;-55
2022/07/30 00:51:13;;;;;;;14.30;8.90;;;12.90;99.90;;;;;;4995997;28;20034;-54
2022/07/30 00:53:39;;;;;;;13.80;9.63;;;13.80;99.90;;;;;;4995216;28;20053;-55
2022/07/30 00:56:05;;;;;;;13.38;10.07;;;12.80;99.90;;;;;;4995054;28;21042;-55
2022/07/30 00:58:33;;;;;;;16.33;9.65;;;12.80;99.90;;;;;;4993828;28;20048;-55
2022/07/30 01:00:58;;;;;;;11.32;8.57;;;12.60;99.90;;;;;;4996268;28;20038;-55
2022/07/30 01:03:24;;;;;;;13.07;9.23;;;12.60;99.90;;;;;;4994338;28;20056;-55
2022/07/30 01:05:52;;;;;;;10.38;8.75;;;12.60;99.90;;;;;;4993836;28;20749;-55
2022/07/30 01:08:17;;;;;;;11.48;9.40;;;13.70;99.90;;;;;;4996187;28;20144;-53
2022/07/30 01:10:43;;;;;;;10.38;8.52;;;13.00;99.90;;;;;;4994312;28;20436;-55
2022/07/30 01:13:11;;;;;;;9.15;8.25;;;14.70;99.90;;;;;;4994762;28;20061;-54
2022/07/30 01:15:37;;;;;;;13.25;9.30;;;13.70;99.90;;;;;;4996270;28;20045;-55
2022/07/30 01:18:06;;;;;;;11.68;8.90;;;13.30;99.90;;;;;;4993999;28;20070;-57
2022/07/30 01:20:39;;;;;;;12.45;8.55;;;13.00;99.90;;;;;;4994621;28;20038;-55
2022/07/30 01:23:26;;;;;;;12.60;8.10;;;12.30;99.90;;;;;;4993488;28;20088;-55
2022/07/30 01:26:03;;;;;;;13.25;8.40;;;10.40;99.90;;;;;;4993885;28;20541;-55
2022/07/30 01:28:37;;;;;;;12.43;8.55;;;12.40;99.90;;;;;;4994903;28;20034;-55
2022/07/30 01:31:04;;;;;;;12.88;8.55;;;12.40;99.90;;;;;;4995312;28;20056;-58
2022/07/30 01:33:31;;;;;;;9.68;7.45;;;13.20;99.90;;;;;;4994670;28;20070;-55
2022/07/30 01:35:58;;;;;;;9.30;7.85;;;12.10;99.90;;;;;;4996515;28;20070;-56
2022/07/30 01:38:26;;;;;;;10.18;8.25;;;12.30;99.90;;;;;;4994239;28;20046;-55
2022/07/30 01:40:54;;;;;;;13.90;10.50;;;12.10;99.90;;;;;;4995833;28;20050;-55
2022/07/30 01:43:23;;;;;;;13.68;9.50;;;12.10;99.90;;;;;;4996883;28;20049;-55
2022/07/30 01:45:50;;;;;;;12.45;9.77;;;12.10;99.90;;;;;;4993442;28;20076;-55
2022/07/30 01:48:19;;;;;;;9.70;6.55;;;12.00;99.90;;;;;;4993668;28;20450;-54
2022/07/30 01:50:49;;;;;;;14.10;11.55;;;12.10;99.90;;;;;;4994212;28;20765;-54
2022/07/30 01:53:22;;;;;;;11.75;9.40;;;11.90;99.90;;;;;;4995594;28;20873;-53
2022/07/30 01:55:51;;;;;;;12.68;8.95;;;12.10;99.90;;;;;;4994972;28;20034;-55
2022/07/30 01:58:19;;;;;;;13.38;9.48;;;12.00;99.90;;;;;;4995262;28;20117;-55
2022/07/30 02:00:48;;;;;;;10.18;8.80;;;11.90;99.90;;;;;;4993338;28;20048;-55
2022/07/30 02:03:14;;;;;;;13.55;10.77;;;12.20;99.90;;;;;;4995139;28;20088;-55
2022/07/30 02:05:42;;;;;;;13.98;10.50;;;13.40;99.90;;;;;;4994394;28;20545;-55
2022/07/30 02:08:21;;;;;;;15.00;8.95;;;12.90;99.90;;;;;;4993261;28;20518;-54
2022/07/30 02:11:09;;;;;;;13.75;10.85;;;11.80;99.90;;;;;;4992632;28;20137;-56
2022/07/30 02:13:46;;;;;;;11.23;10.13;;;11.80;99.90;;;;;;4993406;28;20633;-55
2022/07/30 02:16:18;;;;;;;12.65;9.98;;;13.10;99.90;;;;;;4993682;28;20777;-55
2022/07/30 02:19:01;;;;;;;11.75;10.15;;;11.90;99.90;;;;;;4995784;28;20377;-55
2022/07/30 02:21:32;;;;;;;12.55;9.98;;;12.10;99.90;;;;;;4993204;28;20091;-54
2022/07/30 02:23:59;;;;;;;13.00;10.32;;;11.70;99.90;;;;;;4992053;28;20155;-55
2022/07/30 02:26:26;;;;;;;13.77;9.80;;;11.90;99.90;;;;;;4994804;28;20529;-54
2022/07/30 02:28:56;;;;;;;17.25;9.70;;;13.00;99.90;;;;;;4993324;28;20506;-55
2022/07/30 02:31:25;;;;;;;15.75;10.75;;;12.50;99.90;;;;;;4994832;28;20045;-55
2022/07/30 02:33:57;;;;;;;10.80;9.70;;;11.70;99.90;;;;;;4994933;28;20045;-54
2022/07/30 02:36:24;;;;;;;13.00;9.87;;;13.10;99.90;;;;;;4992406;28;20233;-55
2022/07/30 02:38:51;;;;;;;12.48;9.85;;;13.80;99.90;;;;;;4992863;28;20042;-54
2022/07/30 02:41:23;;;;;;;10.38;9.20;;;11.60;99.90;;;;;;4993798;28;20037;-55
2022/07/30 02:43:51;;;;;;;14.15;10.68;;;11.60;99.90;;;;;;4994641;28;20041;-55
2022/07/30 02:46:18;;;;;;;13.10;10.20;;;11.80;99.90;;;;;;4995359;28;20791;-53
2022/07/30 02:48:47;;;;;;;12.93;9.50;;;12.20;99.90;;;;;;4992773;28;20694;-52
2022/07/30 02:51:16;;;;;;;16.42;10.55;;;13.60;99.90;;;;;;4976636;28;20054;-53
2022/07/30 02:53:46;;;;;;;11.30;9.65;;;11.90;99.90;;;;;;4993174;28;20122;-53
2022/07/30 02:56:16;;;;;;;13.23;8.75;;;12.70;99.90;;;;;;4994133;28;20034;-54
2022/07/30 02:58:43;;;;;;;11.05;9.10;;;12.90;99.90;;;;;;4993353;28;20410;-53
2022/07/30 03:01:12;;;;;;;11.07;9.13;;;11.40;99.90;;;;;;4995925;28;20903;-54
2022/07/30 03:03:39;;;;;;;10.20;9.20;;;12.00;99.90;;;;;;4997960;28;20560;-53
2022/07/30 03:06:08;;;;;;;12.57;9.57;;;11.40;99.90;;;;;;4997387;28;20547;-53
2022/07/30 03:08:34;;;;;;;12.15;10.65;;;11.40;99.90;;;;;;4997692;28;20041;-53
2022/07/30 03:11:03;;;;;;;11.65;8.70;;;11.50;99.90;;;;;;4997888;28;20088;-51
2022/07/30 03:13:31;;;;;;;10.88;8.80;;;12.20;99.90;;;;;;4996007;28;20733;-52
2022/07/30 03:15:58;;;;;;;10.98;9.82;;;11.30;99.90;;;;;;4997558;28;20073;-53
2022/07/30 03:18:31;;;;;;;10.98;9.48;;;11.20;99.90;;;;;;4997455;28;20518;-51
2022/07/30 03:21:00;;;;;;;10.63;8.23;;;11.00;99.90;;;;;;4996680;28;20044;-52
2022/07/30 03:23:27;;;;;;;9.85;8.73;;;11.90;99.90;;;;;;4996079;28;20049;-49
2022/07/30 03:26:02;;;;;;;13.20;9.75;;;11.20;99.90;;;;;;4994740;28;20530;-54
2022/07/30 03:28:32;;;;;;;12.43;10.02;;;11.10;99.90;;;;;;4998567;28;20040;-55
2022/07/30 03:30:59;;;;;;;11.15;9.15;;;11.00;99.90;;;;;;4995913;28;20799;-53
2022/07/30 03:33:25;;;;;;;10.55;9.00;;;10.90;99.90;;;;;;4996453;28;20510;-54
2022/07/30 03:35:54;;;;;;;12.35;10.50;;;11.90;99.90;;;;;;4996220;28;20058;-50
2022/07/30 03:38:20;;;;;;;11.25;9.73;;;11.50;99.90;;;;;;4996555;28;20041;-52
2022/07/30 03:40:46;;;;;;;12.98;8.73;;;11.00;99.90;;;;;;4995560;28;20441;-52
2022/07/30 03:43:14;;;;;;;10.55;7.93;;;11.00;99.90;;;;;;4997095;28;20080;-51
2022/07/30 03:45:43;;;;;;;12.73;9.38;;;11.60;99.90;;;;;;4997039;28;20039;-50
2022/07/30 03:48:10;;;;;;;10.05;7.35;;;10.80;99.90;;;;;;4995318;28;20038;-53
2022/07/30 03:50:38;;;;;;;9.02;7.60;;;11.40;99.90;;;;;;4996994;28;20511;-53
2022/07/30 03:53:05;;;;;;;8.48;6.60;;;11.00;99.90;;;;;;4995877;28;20041;-51
2022/07/30 03:55:32;;;;;;;8.90;6.57;;;11.10;99.90;;;;;;4995313;28;20545;-51
2022/07/30 03:57:59;;;;;;;7.82;7.00;;;10.80;99.90;;;;;;4997284;28;20319;-49
2022/07/30 04:00:28;;;;;;;10.82;7.55;;;10.90;99.90;;;;;;4996311;28;20057;-48
2022/07/30 04:02:55;;;;;;;10.25;6.97;;;10.90;99.90;;;;;;4995649;28;20121;-48
2022/07/30 04:05:21;;;;;;;9.45;6.53;;;10.80;99.90;;;;;;4996789;28;20030;-49
2022/07/30 04:07:48;;;;;;;10.70;8.68;;;10.70;99.90;;;;;;4995486;28;20045;-53
2022/07/30 04:10:15;;;;;;;9.50;5.97;;;10.90;99.90;;;;;;4996472;28;20049;-49
2022/07/30 04:12:41;;;;;;;8.93;6.03;;;10.80;99.90;;;;;;4996365;28;20041;-51
2022/07/30 04:15:10;;;;;;;13.13;7.75;;;10.70;99.90;;;;;;4997269;28;20124;-48
2022/07/30 04:17:44;;;;;;;10.05;7.90;;;10.80;99.90;;;;;;4999106;28;20096;-51
2022/07/30 04:20:20;;;;;;;12.60;8.27;;;10.80;99.90;;;;;;4994963;28;20091;-48
2022/07/30 04:22:48;;;;;;;12.63;8.18;;;10.70;99.90;;;;;;4994777;28;20044;-49
2022/07/30 04:25:15;;;;;;;13.25;10.50;;;10.80;99.90;;;;;;4995146;28;20112;-48
2022/07/30 04:27:41;;;;;;;10.13;8.60;;;11.70;99.90;;;;;;4995645;28;20045;-51
2022/07/30 04:30:09;;;;;;;10.75;9.10;;;11.00;99.90;;;;;;4995616;28;20057;-52
2022/07/30 04:32:36;;;;;;;11.73;8.68;;;11.20;99.90;;;;;;4995355;28;20046;-52
2022/07/30 04:35:03;;;;;;;13.85;10.75;;;11.00;99.90;;;;;;4996219;28;20514;-50
2022/07/30 04:37:30;;;;;;;13.80;10.70;;;11.20;99.90;;;;;;4979329;28;20050;-53
2022/07/30 04:39:56;;;;;;;17.88;11.23;;;11.40;99.90;;;;;;4995619;28;20053;-52
2022/07/30 04:42:26;;;;;;;13.35;11.68;;;11.30;99.90;;;;;;4996806;28;20045;-48
2022/07/30 04:44:52;;;;;;;14.55;10.48;;;12.50;99.90;;;;;;4995449;28;20057;-49
2022/07/30 04:47:19;;;;;;;12.82;11.48;;;11.50;99.90;;;;;;4994394;28;20038;-54
2022/07/30 04:49:45;;;;;;;12.10;10.68;;;13.90;99.90;;;;;;4997463;28;20049;-51
2022/07/30 04:52:13;;;;;;;12.82;11.30;;;11.80;99.90;;;;;;4995826;28;20042;-49
2022/07/30 04:54:54;;;;;;;11.60;9.85;;;11.80;99.90;;;;;;4977702;28;20484;-53
2022/07/30 04:57:23;;;;;;;14.07;10.18;;;11.90;99.90;;;;;;4994291;28;20041;-51
2022/07/30 04:59:49;;;;;;;13.52;9.77;;;11.80;99.90;;;;;;4995041;28;20601;-51
2022/07/30 05:02:17;;;;;;;14.38;11.18;;;11.90;99.90;;;;;;4993719;28;20069;-51
2022/07/30 05:04:46;;;;;;;22.23;10.55;;;13.30;99.90;;;;;;4996267;28;20049;-48
2022/07/30 05:07:16;;;;;;;17.50;10.60;;;13.90;99.90;;;;;;4994609;28;20042;-51
2022/07/30 05:09:42;;;;;;;17.58;11.18;;;12.10;99.90;;;;;;4995532;28;20077;-52
2022/07/30 05:12:08;;;;;;;14.50;11.80;;;13.30;99.90;;;;;;4994621;28;20050;-50
2022/07/30 05:14:34;;;;;;;15.77;13.30;;;12.40;99.90;;;;;;4995704;28;20041;-50
2022/07/30 05:17:00;;;;;;;15.43;13.00;;;12.50;99.90;;;;;;4994932;28;20545;-51
2022/07/30 05:19:25;;;;;;;17.45;12.25;;;13.80;99.90;;;;;;4997599;28;20048;-53
2022/07/30 05:21:51;;;;;;;15.88;12.20;;;14.10;99.90;;;;;;4993867;28;20506;-53
2022/07/30 05:24:17;;;;;;;15.13;11.73;;;12.90;99.90;;;;;;4994848;28;20046;-48
2022/07/30 05:26:44;;;;;;;13.73;12.43;;;13.20;99.90;;;;;;4994128;28;20041;-51
2022/07/30 05:29:10;;;;;;;13.65;12.25;;;13.30;99.90;;;;;;4994426;28;20053;-52
2022/07/30 05:31:36;;;;;;;13.20;11.27;;;14.10;99.90;;;;;;4995024;28;20057;-48
2022/07/30 05:34:02;;;;;;;13.50;12.15;;;14.60;99.90;;;;;;4995234;28;20042;-49
2022/07/30 05:36:30;;;;;;;12.32;11.02;;;15.70;99.90;;;;;;4996797;28;20053;-49
2022/07/30 05:38:55;;;;;;;13.23;10.23;;;13.80;99.90;;;;;;4995117;28;20042;-48
2022/07/30 05:41:21;;;;;;;13.55;10.18;;;14.30;99.90;;;;;;4994784;28;20057;-49
2022/07/30 05:43:48;;;;;;;11.85;9.38;;;15.60;99.90;;;;;;4995381;28;20048;-50
2022/07/30 05:46:14;;;;;;;15.20;9.60;;;14.80;99.90;;;;;;4996916;28;20046;-51
2022/07/30 05:48:40;;;;;;;12.85;9.07;;;14.50;99.90;;;;;;4977422;28;20050;-50
2022/07/30 05:51:07;;;;;;;12.63;9.40;;;15.30;99.90;;;;;;4994187;28;20303;-49
2022/07/30 05:53:33;;;;;;;13.18;9.38;;;14.90;99.90;;;;;;4993065;28;20046;-50
2022/07/30 05:55:59;;;;;;;17.75;9.60;;;14.90;99.90;;;;;;4993571;28;20453;-51
2022/07/30 05:58:24;;;;;;;10.30;9.20;;;15.10;99.90;;;;;;4993899;28;20037;-51
2022/07/30 06:00:50;;;;;;;18.05;9.70;;;15.40;99.90;;;;;;4993703;28;20944;-49
2022/07/30 06:03:16;;;;;;;14.95;9.63;;;15.40;99.90;;;;;;4995919;28;20092;-49
2022/07/30 06:05:41;;;;;;;13.85;10.02;;;15.50;99.90;;;;;;4993589;28;20053;-52
2022/07/30 06:08:07;;;;;;;18.15;10.43;;;15.90;99.90;;;;;;4994633;28;20038;-53
2022/07/30 06:10:33;;;;;;;14.43;9.90;;;16.20;99.90;;;;;;4993276;28;20159;-50
2022/07/30 06:12:59;;;;;;;11.43;8.77;;;16.30;99.90;;;;;;4993063;28;20040;-51
2022/07/30 06:15:25;;;;;;;11.52;8.70;;;16.40;99.90;;;;;;4998183;28;20405;-51
2022/07/30 06:17:51;;;;;;;15.30;8.88;;;16.70;99.90;;;;;;4993287;28;20084;-50
2022/07/30 06:20:19;;;;;;;11.50;7.60;;;18.90;99.90;;;;;;4993325;28;20132;-52
2022/07/30 06:22:44;;;;;;;12.38;8.20;;;17.00;99.90;;;;;;4992995;28;20046;-50
2022/07/30 06:25:11;;;;;;;12.93;8.52;;;19.10;99.90;;;;;;4976051;28;20046;-54
2022/07/30 06:27:37;;;;;;;12.88;7.72;;;17.20;99.90;;;;;;4992780;28;20045;-50
2022/07/30 06:30:05;;;;;;;14.07;8.23;;;17.70;99.90;;;;;;4993496;28;20053;-49
2022/07/30 06:32:31;;;;;;;9.82;7.88;;;17.80;99.90;;;;;;4995572;28;20516;-49
2022/07/30 06:34:58;;;;;;;14.90;7.30;;;18.00;99.90;;;;;;4993740;28;20083;-53
2022/07/30 06:37:24;;;;;;;10.20;7.40;;;17.50;99.90;;;;;;4997381;28;20049;-52
2022/07/30 06:39:50;;;;;;;12.15;7.00;;;18.20;99.90;;;;;;4999425;28;20099;-51
2022/07/30 06:42:18;;;;;;;13.05;8.48;;;18.30;99.90;;;;;;4999294;28;20049;-50
2022/07/30 06:44:44;;;;;;;14.40;7.18;;;19.30;99.90;;;;;;4999065;28;20041;-51
2022/07/30 06:47:10;;;;;;;9.88;6.80;;;18.60;99.90;;;;;;4980685;28;20060;-49
2022/07/30 06:49:36;;;;;;;12.50;6.97;;;18.70;99.90;;;;;;4998870;28;20469;-51
2022/07/30 06:52:03;;;;;;;13.80;6.07;;;18.90;99.90;;;;;;4998421;28;20046;-53
2022/07/30 06:54:29;;;;;;;16.80;6.50;;;19.30;99.90;;;;;;4979472;28;20058;-52
2022/07/30 06:56:57;;;;;;;11.27;5.88;;;20.70;99.90;;;;;;4998432;28;20309;-54
2022/07/30 06:59:22;;;;;;;10.10;5.15;;;19.90;99.90;;;;;;4981948;28;20668;-54
2022/07/30 07:01:49;;;;;;;9.25;4.78;;;21.80;99.90;;;;;;4997847;28;20504;-51
2022/07/30 07:04:14;;;;;;;11.65;5.05;;;20.80;99.90;;;;;;4997046;28;20481;-51
2022/07/30 07:06:40;;;;;;;11.43;4.70;;;21.20;99.90;;;;;;4998687;28;20042;-50
2022/07/30 07:09:06;;;;;;;12.75;4.88;;;21.20;99.90;;;;;;4997189;28;20261;-54
2022/07/30 07:11:32;;;;;;;12.00;4.78;;;21.60;99.20;;;;;;4999347;28;20040;-52
2022/07/30 07:13:58;;;;;;;8.57;4.68;;;21.50;95.00;;;;;;4998445;28;20052;-53
2022/07/30 07:16:24;;;;;;;11.27;4.60;;;22.10;93.50;;;;;;4997983;28;20038;-53
2022/07/30 07:18:53;;;;;;;9.57;4.03;;;22.70;90.80;;;;;;4998066;28;20038;-54
2022/07/30 07:21:19;;;;;;;14.35;5.00;;;23.10;73.90;;;;;;4996831;28;20042;-55
2022/07/30 07:23:47;;;;;;;11.40;4.95;;;23.90;66.50;;;;;;4997225;28;20056;-52
2022/07/30 07:26:15;;;;;;;10.32;5.25;;;23.90;42.80;;;;;;4979139;28;20054;-52
2022/07/30 07:28:41;;;;;;;10.63;4.47;;;23.30;45.10;;;;;;4995739;28;20041;-51
2022/07/30 07:31:08;;;;;;;10.93;4.97;;;23.90;38.60;;;;;;4996800;28;20064;-56
2022/07/30 07:33:36;;;;;;;10.55;5.00;;;23.90;8.70;;;;;;5002628;28;20056;-54
2022/07/30 07:36:02;;;;;;;9.00;4.38;;;23.40;10.80;;;;;;4995110;28;20072;-52
2022/07/30 07:38:28;;;;;;;9.10;4.85;;;23.00;23.60;;;;;;4994440;28;20043;-55
2022/07/30 07:40:54;;;;;;;11.68;4.20;;;22.80;38.90;;;;;;4994448;28;20143;-54
2022/07/30 07:43:20;;;;;;;8.98;4.05;;;23.60;28.90;;;;;;4994372;28;20080;-54
2022/07/30 07:45:45;;;;;;;8.52;4.07;;;24.60;1.00;;;;;;4995976;28;20454;-56
2022/07/30 07:48:11;;;;;;;10.05;3.83;;;25.50;1.00;;;;;;4996072;28;20081;-56
2022/07/30 07:50:37;;;;;;;10.68;4.03;;;25.40;99.90;;;;;;4996369;28;20123;-56
2022/07/30 07:53:03;;;;;;;10.77;3.33;;;26.90;99.90;;;;;;4978610;28;20045;-57
2022/07/30 07:55:29;;;;;;;8.75;3.40;;;25.30;99.90;;;;;;4997684;28;20046;-56
2022/07/30 07:57:55;;;;;;;11.00;3.95;;;25.20;99.90;;;;;;4995058;28;20509;-55
2022/07/30 08:00:20;;;;;;;10.45;3.63;;;25.70;99.90;;;;;;4995357;28;20038;-55
2022/07/30 08:02:47;;;;;;;8.52;3.55;;;26.00;1.00;;;;;;4994573;28;20038;-56
2022/07/30 08:05:14;;;;;;;9.05;3.45;;;24.10;1.00;;;;;;4994962;28;20037;-58
2022/07/30 08:07:41;;;;;;;9.85;4.00;;;24.80;99.90;;;;;;4997385;28;20052;-57
2022/07/30 08:10:07;;;;;;;11.43;3.88;;;25.70;99.90;;;;;;4996129;28;20717;-57
2022/07/30 08:12:33;;;;;;;9.45;3.20;;;25.90;1.70;;;;;;4994819;28;20149;-57
2022/07/30 08:14:59;;;;;;;9.02;2.80;;;25.70;99.90;;;;;;4997334;28;20046;-58
2022/07/30 08:17:25;;;;;;;6.88;2.95;;;24.90;99.90;;;;;;4993170;28;20380;-57
2022/07/30 08:19:51;;;;;;;8.32;3.03;;;24.30;99.90;;;;;;4994958;28;20050;-56
2022/07/30 08:22:16;;;;;;;6.95;2.80;;;23.10;99.90;;;;;;4994957;28;20552;-56
2022/07/30 08:24:42;;;;;;;10.50;3.65;;;24.20;1.00;;;;;;4974815;28;20053;-56
2022/07/30 08:27:08;;;;;;;9.75;3.55;;;22.80;23.50;;;;;;4996719;28;21926;-56
2022/07/30 08:29:33;;;;;;;8.48;3.10;;;22.70;1.00;;;;;;4994416;28;20188;-57
2022/07/30 08:32:01;;;;;;;7.95;2.72;;;23.10;99.90;;;;;;4995071;28;20045;-58
2022/07/30 08:37:10;;;;;;;6.40;2.80;;;24.60;71.40;;;;;;5091148;27;20502;-56
2022/07/30 08:39:35;;;;;;;9.45;2.83;;;23.70;1.00;;;;;;5089112;28;20525;-57
2022/07/30 08:42:03;;;;;;;8.50;2.45;;;24.50;1.00;;;;;;5090711;28;20400;-56
2022/07/30 08:44:31;;;;;;;8.93;2.50;;;25.10;99.90;;;;;;5090840;28;20047;-57
2022/07/30 08:46:58;;;;;;;8.30;2.55;;;25.20;99.90;;;;;;5090561;28;20168;-57
2022/07/30 08:49:24;;;;;;;8.90;2.53;;;24.50;1.00;;;;;;5090739;28;20594;-56
2022/07/30 08:51:50;;;;;;;10.07;2.63;;;24.00;1.00;;;;;;5106315;28;20036;-56
2022/07/30 08:54:18;;;;;;;10.20;3.10;;;23.70;1.00;;;;;;5089419;28;20046;-57
2022/07/30 08:56:44;;;;;;;9.30;2.92;;;23.30;1.00;;;;;;5089390;28;20114;-56
2022/07/30 08:59:12;;;;;;;15.23;2.60;;;25.00;1.00;;;;;;5088922;28;20058;-56
2022/07/30 09:01:37;;;;;;;11.93;3.13;;;24.20;1.00;;;;;;5090157;28;20028;-56
2022/07/30 09:04:03;;;;;;;9.27;2.92;;;23.10;1.00;;;;;;5089881;28;20039;-57
2022/07/30 09:06:29;;;;;;;7.40;3.00;;;22.60;1.00;;;;;;5089269;28;20040;-57
2022/07/30 09:08:55;;;;;;;7.57;2.58;;;22.70;1.00;;;;;;5089177;28;20186;-56
2022/07/30 09:11:21;;;;;;;8.40;2.80;;;22.80;1.00;;;;;;5090267;28;20044;-56
2022/07/30 09:13:47;;;;;;;7.68;2.50;;;23.50;1.00;;;;;;5088746;28;20583;-56
2022/07/30 09:16:24;;;;;;;10.15;2.88;;;24.00;1.00;;;;;;5105991;27;20045;-56
2022/07/30 09:18:52;;;;;;;12.30;3.15;;;24.50;1.00;;;;;;5088367;28;20047;-56
2022/07/30 09:21:24;;;;;;;9.07;3.10;;;25.10;1.00;;;;;;5089836;28;20043;-56
2022/07/30 09:24:06;;;;;;;5.50;2.10;;;25.50;99.90;;;;;;5089667;28;20548;-56
2022/07/30 09:27:00;;;;;;;8.02;2.15;;;25.70;99.90;;;;;;5089827;28;20162;-56
2022/07/30 09:29:30;;;;;;;6.28;2.00;;;25.60;90.10;;;;;;5088542;28;20039;-56
2022/07/30 09:32:02;;;;;;;7.88;2.67;;;25.70;1.00;;;;;;5089789;28;20277;-56
2022/07/30 09:34:31;;;;;;;8.55;2.70;;;25.50;99.90;;;;;;5089825;28;20082;-56
2022/07/30 09:36:59;;;;;;;7.97;2.00;;;25.40;99.90;;;;;;5088507;28;20099;-56
2022/07/30 09:39:28;;;;;;;8.80;2.35;;;24.90;99.90;;;;;;5089838;28;20075;-56
2022/07/30 09:41:55;;;;;;;9.15;2.75;;;24.90;99.90;;;;;;5089919;28;20439;-56
2022/07/30 09:44:25;;;;;;;9.40;2.47;;;24.70;99.90;;;;;;5090631;28;20046;-56
2022/07/30 09:46:51;;;;;;;7.82;2.28;;;27.30;99.90;;;;;;5085982;28;20051;-56
2022/07/30 09:49:22;;;;;;;7.57;2.60;;;25.00;99.90;;;;;;5075622;28;20043;-56
2022/07/30 09:51:49;;;;;;;7.45;2.35;;;24.70;99.90;;;;;;5075131;28;20073;-56
2022/07/30 09:54:15;;;;;;;8.95;2.63;;;24.30;99.90;;;;;;5075834;28;20047;-56
2022/07/30 09:56:45;;;;;;;8.73;2.47;;;24.30;99.90;;;;;;5075432;28;20031;-55
2022/07/30 09:59:27;;;;;;;10.40;3.03;;;24.30;99.90;;;;;;5075471;28;20150;-56
2022/07/30 10:01:54;;;;;;;18.75;3.67;;;24.30;99.90;;;;;;5075014;28;20090;-57
2022/07/30 10:04:27;;;;;;;19.42;3.25;;;24.20;99.90;;;;;;5075149;28;20123;-56
2022/07/30 10:06:56;;;;;;;10.50;2.92;;;24.20;99.90;;;;;;5074588;28;20036;-56
2022/07/30 10:09:28;;;;;;;8.48;2.33;;;24.30;99.90;;;;;;5074936;28;20790;-56
2022/07/30 10:11:56;;;;;;;5.80;2.22;;;24.60;99.90;;;;;;5074967;28;20065;-56
2022/07/30 10:14:27;;;;;;;6.93;2.60;;;24.90;99.90;;;;;;5074145;28;20613;-56
2022/07/30 10:16:53;;;;;;;8.00;2.40;;;24.90;99.90;;;;;;5075095;28;20044;-55
2022/07/30 10:19:19;;;;;;;15.65;3.22;;;25.10;99.90;;;;;;5074804;28;20293;-56
2022/07/30 10:21:45;;;;;;;9.05;2.55;;;25.40;99.90;;;;;;5075295;28;20504;-56
2022/07/30 10:24:12;;;;;;;7.90;2.17;;;25.60;99.90;;;;;;5074765;28;20039;-56
2022/07/30 10:26:38;;;;;;;8.32;2.67;;;26.10;99.90;;;;;;5074467;28;20408;-56
2022/07/30 10:29:04;;;;;;;7.35;2.25;;;26.20;99.90;;;;;;5074155;28;20042;-56
2022/07/30 10:31:30;;;;;;;9.27;2.33;;;26.10;99.90;;;;;;5075320;28;20821;-56
2022/07/30 10:33:56;;;;;;;4.70;1.80;;;26.20;11.20;;;;;;5074586;28;20043;-56
2022/07/30 10:36:24;;;;;;;7.65;2.45;;;26.40;1.00;;;;;;5073175;28;20044;-56
2022/07/30 10:38:51;;;;;;;9.60;2.47;;;26.40;1.00;;;;;;5073697;28;20036;-56
2022/07/30 10:41:47;;;;;;;8.18;2.33;;;26.20;1.00;;;;;;5074411;28;20612;-56
2022/07/30 10:44:46;;;;;;;6.80;2.10;;;25.90;99.90;;;;;;5027495;28;20071;-56
2022/07/30 10:47:15;;;;;;;8.27;2.40;;;26.00;99.90;;;;;;5029261;28;20521;-56
2022/07/30 10:49:41;;;;;;;6.55;2.00;;;25.90;99.90;;;;;;5028638;28;20052;-56
2022/07/30 10:52:06;;;;;;;7.25;2.10;;;26.10;99.90;;;;;;5025193;28;20068;-56
2022/07/30 10:54:32;;;;;;;6.53;1.67;;;26.20;99.90;;;;;;5027598;28;20048;-56
2022/07/30 10:57:07;;;;;;;6.20;2.08;;;26.20;99.90;;;;;;5026417;28;20037;-56
2022/07/30 11:00:12;;;;;;;5.70;2.13;;;26.20;1.00;;;;;;5025187;28;20080;-57
2022/07/30 11:03:13;;;;;;;5.80;1.90;;;26.50;99.90;;;;;;4953033;28;21473;-56
2022/07/30 11:05:41;;;;;;;8.65;1.85;;;26.40;1.00;;;;;;4953561;28;20038;-56
2022/07/30 11:08:29;;;;;;;7.15;2.08;;;26.20;99.90;;;;;;4936774;28;20055;-56
2022/07/30 11:10:55;;;;;;;6.82;1.92;;;25.80;1.00;;;;;;4953372;28;20054;-56
2022/07/30 11:14:11;;;;;;;6.18;1.77;;;25.50;1.00;;;;;;4954274;28;20050;-54
2022/07/30 11:16:40;;;;;;;7.90;2.20;;;25.90;1.00;;;;;;4895923;29;20147;-55
2022/07/30 11:19:23;;;;;;;7.57;1.80;;;26.00;34.10;;;;;;4892734;29;20067;-55
2022/07/30 11:22:26;;;;;;;6.45;1.60;;;26.30;78.20;;;;;;4928221;28;20055;-56
2022/07/30 11:24:52;;;;;;;7.93;1.50;;;26.50;89.70;;;;;;4943522;28;20102;-54
2022/07/30 11:27:56;;;;;;;13.20;2.17;;;26.70;89.00;;;;;;4944961;28;20483;-56
2022/07/30 11:30:21;;;;;;;6.60;1.85;;;26.30;96.80;;;;;;4859996;29;20045;-56
2022/07/30 11:32:51;;;;;;;9.10;2.30;;;26.70;99.90;;;;;;4859594;29;20097;-54
2022/07/30 11:35:17;;;;;;;6.63;1.95;;;26.90;99.90;;;;;;4859015;29;20444;-55
2022/07/30 11:38:17;;;;;;;6.45;1.73;;;26.90;99.90;;;;;;4859580;29;20096;-55
2022/07/30 11:40:53;;;;;;;6.25;2.00;;;26.60;99.90;;;;;;4840912;29;20057;-55
2022/07/30 11:43:40;;;;;;;6.07;1.60;;;26.60;99.90;;;;;;4840888;29;20549;-54
2022/07/30 11:46:08;;;;;;;8.93;1.88;;;26.60;99.90;;;;;;4840274;29;20145;-54
2022/07/30 11:48:35;;;;;;;5.53;1.50;;;26.70;99.90;;;;;;4838838;29;20118;-56
2022/07/30 11:51:02;;;;;;;7.30;1.80;;;26.70;99.90;;;;;;4838568;29;20380;-55
2022/07/30 11:53:27;;;;;;;5.88;1.98;;;27.10;99.90;;;;;;4873771;29;20052;-56
2022/07/30 11:55:55;;;;;;;3.72;1.58;;;26.90;99.90;;;;;;4895571;29;20076;-55
2022/07/30 11:58:24;;;;;;;5.20;1.60;;;27.00;99.90;;;;;;4896393;29;20047;-56
2022/07/30 12:00:51;;;;;;;8.88;1.90;;;27.10;99.90;;;;;;4930967;28;20057;-54
2022/07/30 12:03:19;;;;;;;4.93;1.60;;;26.60;99.90;;;;;;4991680;28;20069;-57
2022/07/30 12:05:45;;;;;;;4.93;1.52;;;26.60;99.90;;;;;;4991851;28;20053;-55
2022/07/30 12:08:12;;;;;;;6.10;1.50;;;26.40;99.90;;;;;;4992036;28;20074;-56
2022/07/30 12:10:38;;;;;;;5.28;1.58;;;28.50;99.90;;;;;;4992288;28;20073;-56
2022/07/30 12:13:11;;;;;;;6.70;1.63;;;26.70;99.90;;;;;;4991050;28;20494;-56
2022/07/30 12:15:42;;;;;;;5.78;1.50;;;26.70;99.90;;;;;;5009893;28;20038;-55
2022/07/30 12:18:12;;;;;;;7.60;2.00;;;26.70;99.90;;;;;;5074507;28;20135;-56
2022/07/30 12:20:38;;;;;;;5.85;1.70;;;26.30;99.90;;;;;;5074331;28;20044;-55
2022/07/30 12:23:12;;;;;;;5.35;1.42;;;26.40;99.90;;;;;;5073342;28;20048;-55
2022/07/30 12:25:40;;;;;;;7.25;1.63;;;26.80;99.90;;;;;;5074336;28;20136;-55
2022/07/30 12:28:06;;;;;;;4.28;1.40;;;25.90;99.90;;;;;;5073579;28;20058;-54
2022/07/30 12:30:33;;;;;;;6.68;2.00;;;25.70;99.90;;;;;;5074263;28;20046;-55
2022/07/30 12:32:59;;;;;;;6.63;1.63;;;25.50;99.90;;;;;;5074200;28;20724;-54
2022/07/30 12:35:43;;;;;;;5.10;1.40;;;25.40;99.90;;;;;;5073954;28;20322;-54
2022/07/30 12:38:11;;;;;;;7.47;1.90;;;25.30;99.90;;;;;;5075053;28;20048;-54
2022/07/30 12:40:55;;;;;;;5.88;1.60;;;25.50;99.90;;;;;;5074308;28;20093;-55
2022/07/30 12:44:00;;;;;;;8.80;1.60;;;25.40;99.90;;;;;;5073493;28;20044;-55
2022/07/30 12:46:26;;;;;;;4.45;1.33;;;25.60;99.90;;;;;;5052042;28;20076;-53
2022/07/30 12:48:59;;;;;;;7.07;1.60;;;25.40;99.90;;;;;;5050468;28;20221;-54
2022/07/30 12:51:27;;;;;;;6.95;1.60;;;25.40;99.90;;;;;;5050276;28;21252;-55